sensor_id;sensor_type;location;lat;lon;timestamp;temperature;humidity
1355;DHT22;671;48.972;9.276;2023-07-22T00:00:02;15.40;99.90
1355;DHT22;671;48.972;9.276;2023-07-22T00:02:32;15.40;99.90
1355;DHT22;671;48.972;9.276;2023-07-22T00:04:58;15.40;99.90
1355;DHT22;671;48.972;9.276;2023-07-22T00:07:25;15.40;99.90
1355;DHT22;671;48.972;9.276;2023-07-22T00:09:51;15.30;99.90
1355;DHT22;671;48.972;9.276;2023-07-22T00:12:18;15.30;99.90
1355;DHT22;671;48.972;9.276;2023-07-22T00:14:44;15.30;99.90
1355;DHT22;671;48.972;9.276;2023-07-22T00:17:11;15.30;99.90
1355;DHT22;671;48.972;9.276;2023-07-22T00:19:37;15.30;99.90
1355;DHT22;671;48.972;9.276;2023-07-22T00:22:04;15.30;99.90
1355;DHT22;671;48.972;9.276;2023-07-22T00:24:30;15.30;99.90
1355;DHT22;671;48.972;9.276;2023-07-22T00:26:58;15.30;99.90
1355;DHT22;671;48.972;9.276;2023-07-22T00:29:24;15.30;99.90
1355;DHT22;671;48.972;9.276;2023-07-22T00:31:50;15.30;99.90
1355;DHT22;671;48.972;9.276;2023-07-22T00:34:17;15.30;99.90
1355;DHT22;671;48.972;9.276;2023-07-22T00:36:44;15.30;99.90
1355;DHT22;671;48.972;9.276;2023-07-22T00:39:10;15.30;99.90
1355;DHT22;671;48.972;9.276;2023-07-22T00:41:40;15.40;99.90
1355;DHT22;671;48.972;9.276;2023-07-22T00:44:08;15.50;99.90
1355;DHT22;671;48.972;9.276;2023-07-22T00:46:35;15.50;99.90
1355;DHT22;671;48.972;9.276;2023-07-22T00:49:02;15.60;99.90
1355;DHT22;671;48.972;9.276;2023-07-22T00:51:28;15.60;99.90
1355;DHT22;671;48.972;9.276;2023-07-22T00:53:55;15.60;99.90
1355;DHT22;671;48.972;9.276;2023-07-22T00:56:22;15.70;99.90
1355;DHT22;671;48.972;9.276;2023-07-22T00:58:48;15.70;99.90
1355;DHT22;671;48.972;9.276;2023-07-22T01:01:15;15.70;99.90
1355;DHT22;671;48.972;9.276;2023-07-22T01:03:42;15.70;99.90
1355;DHT22;671;48.972;9.276;2023-07-22T01:06:09;15.70;99.90
1355;DHT22;671;48.972;9.276;2023-07-22T01:08:36;15.80;99.90
1355;DHT22;671;48.972;9.276;2023-07-22T01:11:04;15.70;99.90
1355;DHT22;671;48.972;9.276;2023-07-22T01:13:30;15.60;99.90
1355;DHT22;671;48.972;9.276;2023-07-22T01:15:57;15.50;99.90
1355;DHT22;671;48.972;9.276;2023-07-22T01:18:24;15.50;99.90
1355;DHT22;671;48.972;9.276;2023-07-22T01:20:50;15.40;99.90
1355;DHT22;671;48.972;9.276;2023-07-22T01:23:17;15.40;99.90
1355;DHT22;671;48.972;9.276;2023-07-22T01:25:44;15.30;99.90
1355;DHT22;671;48.972;9.276;2023-07-22T01:28:11;15.20;99.90
1355;DHT22;671;48.972;9.276;2023-07-22T01:30:37;15.20;99.90
1355;DHT22;671;48.972;9.276;2023-07-22T01:33:04;15.20;99.90
1355;DHT22;671;48.972;9.276;2023-07-22T01:35:30;15.10;99.90
1355;DHT22;671;48.972;9.276;2023-07-22T01:37:57;15.10;99.90
1355;DHT22;671;48.972;9.276;2023-07-22T01:40:25;15.00;99.90
1355;DHT22;671;48.972;9.276;2023-07-22T01:42:51;15.00;99.90
1355;DHT22;671;48.972;9.276;2023-07-22T01:45:18;15.00;99.90
1355;DHT22;671;48.972;9.276;2023-07-22T01:47:44;14.90;99.90
1355;DHT22;671;48.972;9.276;2023-07-22T01:50:11;14.90;99.90
1355;DHT22;671;48.972;9.276;2023-07-22T01:52:38;14.90;99.90
1355;DHT22;671;48.972;9.276;2023-07-22T01:55:04;14.90;99.90
1355;DHT22;671;48.972;9.276;2023-07-22T01:57:32;14.80;99.90
1355;DHT22;671;48.972;9.276;2023-07-22T01:59:59;14.80;99.90
1355;DHT22;671;48.972;9.276;2023-07-22T02:02:25;14.80;99.90
1355;DHT22;671;48.972;9.276;2023-07-22T02:04:50;14.70;99.90
1355;DHT22;671;48.972;9.276;2023-07-22T02:07:16;14.80;99.90
1355;DHT22;671;48.972;9.276;2023-07-22T02:09:42;14.80;99.90
1355;DHT22;671;48.972;9.276;2023-07-22T02:12:08;14.80;99.90
1355;DHT22;671;48.972;9.276;2023-07-22T02:14:35;14.90;99.90
1355;DHT22;671;48.972;9.276;2023-07-22T02:17:01;14.90;99.90
1355;DHT22;671;48.972;9.276;2023-07-22T02:19:28;15.00;99.90
1355;DHT22;671;48.972;9.276;2023-07-22T02:21:55;15.00;99.90
1355;DHT22;671;48.972;9.276;2023-07-22T02:24:22;15.10;99.90
1355;DHT22;671;48.972;9.276;2023-07-22T02:26:49;15.10;99.90
1355;DHT22;671;48.972;9.276;2023-07-22T02:29:16;15.10;99.90
1355;DHT22;671;48.972;9.276;2023-07-22T02:31:44;15.10;99.90
1355;DHT22;671;48.972;9.276;2023-07-22T02:34:11;15.10;99.90
1355;DHT22;671;48.972;9.276;2023-07-22T02:36:37;15.10;99.90
1355;DHT22;671;48.972;9.276;2023-07-22T02:39:03;15.00;99.90
1355;DHT22;671;48.972;9.276;2023-07-22T02:41:30;14.90;99.90
1355;DHT22;671;48.972;9.276;2023-07-22T02:43:57;14.90;99.90
1355;DHT22;671;48.972;9.276;2023-07-22T02:46:23;14.90;99.90
1355;DHT22;671;48.972;9.276;2023-07-22T02:48:51;14.80;99.90
1355;DHT22;671;48.972;9.276;2023-07-22T02:51:17;14.80;99.90
1355;DHT22;671;48.972;9.276;2023-07-22T02:53:44;14.70;99.90
1355;DHT22;671;48.972;9.276;2023-07-22T02:56:13;14.70;99.90
1355;DHT22;671;48.972;9.276;2023-07-22T02:58:39;14.60;99.90
1355;DHT22;671;48.972;9.276;2023-07-22T03:01:08;14.50;99.90
1355;DHT22;671;48.972;9.276;2023-07-22T03:03:36;14.50;99.90
1355;DHT22;671;48.972;9.276;2023-07-22T03:06:03;14.40;99.90
1355;DHT22;671;48.972;9.276;2023-07-22T03:08:30;14.40;99.90
1355;DHT22;671;48.972;9.276;2023-07-22T03:10:57;14.30;99.90
1355;DHT22;671;48.972;9.276;2023-07-22T03:13:23;14.20;99.90
1355;DHT22;671;48.972;9.276;2023-07-22T03:15:50;14.20;99.90
1355;DHT22;671;48.972;9.276;2023-07-22T03:18:16;14.10;99.90
1355;DHT22;671;48.972;9.276;2023-07-22T03:20:43;14.10;99.90
1355;DHT22;671;48.972;9.276;2023-07-22T03:23:09;14.10;99.90
1355;DHT22;671;48.972;9.276;2023-07-22T03:25:36;14.10;99.90
1355;DHT22;671;48.972;9.276;2023-07-22T03:28:04;14.10;99.90
1355;DHT22;671;48.972;9.276;2023-07-22T03:30:31;14.10;99.90
1355;DHT22;671;48.972;9.276;2023-07-22T03:32:58;14.10;99.90
1355;DHT22;671;48.972;9.276;2023-07-22T03:35:25;14.00;99.90
1355;DHT22;671;48.972;9.276;2023-07-22T03:37:51;14.00;99.90
1355;DHT22;671;48.972;9.276;2023-07-22T03:40:18;14.00;99.90
1355;DHT22;671;48.972;9.276;2023-07-22T03:42:50;14.00;99.90
1355;DHT22;671;48.972;9.276;2023-07-22T03:45:18;14.00;99.90
1355;DHT22;671;48.972;9.276;2023-07-22T03:47:45;14.00;99.90
1355;DHT22;671;48.972;9.276;2023-07-22T03:50:13;13.90;99.90
1355;DHT22;671;48.972;9.276;2023-07-22T03:52:39;13.90;99.90
1355;DHT22;671;48.972;9.276;2023-07-22T03:55:06;13.90;99.90
1355;DHT22;671;48.972;9.276;2023-07-22T03:57:33;13.90;99.90
1355;DHT22;671;48.972;9.276;2023-07-22T04:00:00;13.90;99.90
1355;DHT22;671;48.972;9.276;2023-07-22T04:02:27;13.90;99.90
1355;DHT22;671;48.972;9.276;2023-07-22T04:04:54;13.90;99.90
1355;DHT22;671;48.972;9.276;2023-07-22T04:07:21;13.90;99.90
1355;DHT22;671;48.972;9.276;2023-07-22T04:09:48;14.00;99.90
1355;DHT22;671;48.972;9.276;2023-07-22T04:12:15;14.00;99.90
1355;DHT22;671;48.972;9.276;2023-07-22T04:14:41;14.00;99.90
1355;DHT22;671;48.972;9.276;2023-07-22T04:17:08;14.10;99.90
1355;DHT22;671;48.972;9.276;2023-07-22T04:19:34;14.10;99.90
1355;DHT22;671;48.972;9.276;2023-07-22T04:22:02;14.10;99.90
1355;DHT22;671;48.972;9.276;2023-07-22T04:24:31;14.20;99.90
1355;DHT22;671;48.972;9.276;2023-07-22T04:26:57;14.30;99.90
1355;DHT22;671;48.972;9.276;2023-07-22T04:29:24;14.30;99.90
1355;DHT22;671;48.972;9.276;2023-07-22T04:31:50;14.40;99.90
1355;DHT22;671;48.972;9.276;2023-07-22T04:34:17;14.40;99.90
1355;DHT22;671;48.972;9.276;2023-07-22T04:36:43;14.40;99.90
1355;DHT22;671;48.972;9.276;2023-07-22T04:39:10;14.50;99.90
1355;DHT22;671;48.972;9.276;2023-07-22T04:41:36;14.60;99.90
1355;DHT22;671;48.972;9.276;2023-07-22T04:44:03;14.60;99.90
1355;DHT22;671;48.972;9.276;2023-07-22T04:46:30;14.70;99.90
1355;DHT22;671;48.972;9.276;2023-07-22T04:48:56;14.70;99.90
1355;DHT22;671;48.972;9.276;2023-07-22T04:51:24;14.80;99.90
1355;DHT22;671;48.972;9.276;2023-07-22T04:53:50;14.90;99.90
1355;DHT22;671;48.972;9.276;2023-07-22T04:56:17;14.90;99.90
1355;DHT22;671;48.972;9.276;2023-07-22T04:58:43;15.00;99.90
1355;DHT22;671;48.972;9.276;2023-07-22T05:01:10;15.00;99.90
1355;DHT22;671;48.972;9.276;2023-07-22T05:03:36;15.10;99.90
1355;DHT22;671;48.972;9.276;2023-07-22T05:06:03;15.20;99.90
1355;DHT22;671;48.972;9.276;2023-07-22T05:08:29;15.30;99.90
1355;DHT22;671;48.972;9.276;2023-07-22T05:10:56;15.30;99.90
1355;DHT22;671;48.972;9.276;2023-07-22T05:13:22;15.50;99.90
1355;DHT22;671;48.972;9.276;2023-07-22T05:15:49;15.50;99.90
1355;DHT22;671;48.972;9.276;2023-07-22T05:18:15;15.60;99.90
1355;DHT22;671;48.972;9.276;2023-07-22T05:20:42;15.70;99.90
1355;DHT22;671;48.972;9.276;2023-07-22T05:23:08;15.80;99.90
1355;DHT22;671;48.972;9.276;2023-07-22T05:25:35;15.90;99.90
1355;DHT22;671;48.972;9.276;2023-07-22T05:28:01;16.60;99.90
1355;DHT22;671;48.972;9.276;2023-07-22T05:30:28;17.60;99.90
1355;DHT22;671;48.972;9.276;2023-07-22T05:32:54;18.50;99.90
1355;DHT22;671;48.972;9.276;2023-07-22T05:35:21;19.20;99.90
1355;DHT22;671;48.972;9.276;2023-07-22T05:37:47;19.70;99.90
1355;DHT22;671;48.972;9.276;2023-07-22T05:40:14;20.10;99.90
1355;DHT22;671;48.972;9.276;2023-07-22T05:42:40;20.40;99.90
1355;DHT22;671;48.972;9.276;2023-07-22T05:45:07;20.70;99.90
1355;DHT22;671;48.972;9.276;2023-07-22T05:47:34;21.00;99.90
1355;DHT22;671;48.972;9.276;2023-07-22T05:50:01;21.10;99.90
1355;DHT22;671;48.972;9.276;2023-07-22T05:52:27;21.10;99.90
1355;DHT22;671;48.972;9.276;2023-07-22T05:54:54;21.00;99.90
1355;DHT22;671;48.972;9.276;2023-07-22T05:57:20;20.60;99.90
1355;DHT22;671;48.972;9.276;2023-07-22T05:59:47;20.00;99.90
1355;DHT22;671;48.972;9.276;2023-07-22T06:02:13;19.70;99.90
1355;DHT22;671;48.972;9.276;2023-07-22T06:04:40;19.40;99.90
1355;DHT22;671;48.972;9.276;2023-07-22T06:07:06;19.30;99.90
1355;DHT22;671;48.972;9.276;2023-07-22T06:09:33;19.20;99.90
1355;DHT22;671;48.972;9.276;2023-07-22T06:11:59;19.10;99.90
1355;DHT22;671;48.972;9.276;2023-07-22T06:14:26;19.00;99.90
1355;DHT22;671;48.972;9.276;2023-07-22T06:16:52;19.00;99.90
1355;DHT22;671;48.972;9.276;2023-07-22T06:19:19;19.00;99.90
1355;DHT22;671;48.972;9.276;2023-07-22T06:21:45;19.00;99.90
1355;DHT22;671;48.972;9.276;2023-07-22T06:24:10;19.10;99.90
1355;DHT22;671;48.972;9.276;2023-07-22T06:26:36;19.10;99.90
1355;DHT22;671;48.972;9.276;2023-07-22T06:29:02;19.20;99.90
1355;DHT22;671;48.972;9.276;2023-07-22T06:31:29;19.20;99.90
1355;DHT22;671;48.972;9.276;2023-07-22T06:33:57;19.30;99.90
1355;DHT22;671;48.972;9.276;2023-07-22T06:36:26;19.40;99.90
1355;DHT22;671;48.972;9.276;2023-07-22T06:38:53;19.40;99.90
1355;DHT22;671;48.972;9.276;2023-07-22T06:41:21;19.50;99.90
1355;DHT22;671;48.972;9.276;2023-07-22T06:43:49;19.60;99.90
1355;DHT22;671;48.972;9.276;2023-07-22T06:46:16;19.60;99.90
1355;DHT22;671;48.972;9.276;2023-07-22T06:48:43;19.70;99.90
1355;DHT22;671;48.972;9.276;2023-07-22T06:51:09;19.80;99.90
1355;DHT22;671;48.972;9.276;2023-07-22T06:53:36;19.80;99.90
1355;DHT22;671;48.972;9.276;2023-07-22T06:56:02;19.90;99.90
1355;DHT22;671;48.972;9.276;2023-07-22T06:58:29;20.00;99.90
1355;DHT22;671;48.972;9.276;2023-07-22T07:00:56;20.20;99.90
1355;DHT22;671;48.972;9.276;2023-07-22T07:03:23;20.20;99.90
1355;DHT22;671;48.972;9.276;2023-07-22T07:05:55;20.40;99.90
1355;DHT22;671;48.972;9.276;2023-07-22T07:08:22;20.60;99.90
1355;DHT22;671;48.972;9.276;2023-07-22T07:10:50;20.60;99.90
1355;DHT22;671;48.972;9.276;2023-07-22T07:13:17;20.70;99.90
1355;DHT22;671;48.972;9.276;2023-07-22T07:15:47;20.80;99.90
1355;DHT22;671;48.972;9.276;2023-07-22T07:18:15;20.90;99.90
1355;DHT22;671;48.972;9.276;2023-07-22T07:20:41;21.00;99.90
1355;DHT22;671;48.972;9.276;2023-07-22T07:23:08;21.10;99.90
1355;DHT22;671;48.972;9.276;2023-07-22T07:25:34;21.20;99.90
1355;DHT22;671;48.972;9.276;2023-07-22T07:28:01;21.30;99.90
1355;DHT22;671;48.972;9.276;2023-07-22T07:30:27;21.30;99.90
1355;DHT22;671;48.972;9.276;2023-07-22T07:32:54;21.30;99.90
1355;DHT22;671;48.972;9.276;2023-07-22T07:35:20;21.40;99.90
1355;DHT22;671;48.972;9.276;2023-07-22T07:37:47;21.50;99.90
1355;DHT22;671;48.972;9.276;2023-07-22T07:40:13;21.60;99.90
1355;DHT22;671;48.972;9.276;2023-07-22T07:42:40;21.70;99.90
1355;DHT22;671;48.972;9.276;2023-07-22T07:45:07;21.70;99.90
1355;DHT22;671;48.972;9.276;2023-07-22T07:47:34;21.80;99.90
1355;DHT22;671;48.972;9.276;2023-07-22T07:50:01;21.80;99.90
1355;DHT22;671;48.972;9.276;2023-07-22T07:52:27;21.80;99.90
1355;DHT22;671;48.972;9.276;2023-07-22T07:54:54;22.00;99.90
1355;DHT22;671;48.972;9.276;2023-07-22T07:57:20;22.00;99.90
1355;DHT22;671;48.972;9.276;2023-07-22T07:59:47;22.10;99.90
1355;DHT22;671;48.972;9.276;2023-07-22T08:02:13;22.20;99.90
1355;DHT22;671;48.972;9.276;2023-07-22T08:04:39;22.20;99.90
1355;DHT22;671;48.972;9.276;2023-07-22T08:07:06;22.20;99.90
1355;DHT22;671;48.972;9.276;2023-07-22T08:09:33;22.20;99.90
1355;DHT22;671;48.972;9.276;2023-07-22T08:12:01;22.40;99.90
1355;DHT22;671;48.972;9.276;2023-07-22T08:14:27;22.50;99.90
1355;DHT22;671;48.972;9.276;2023-07-22T08:16:54;22.50;99.90
1355;DHT22;671;48.972;9.276;2023-07-22T08:19:20;22.60;99.90
1355;DHT22;671;48.972;9.276;2023-07-22T08:21:47;22.60;99.90
1355;DHT22;671;48.972;9.276;2023-07-22T08:24:13;22.60;99.90
1355;DHT22;671;48.972;9.276;2023-07-22T08:26:40;22.60;99.90
1355;DHT22;671;48.972;9.276;2023-07-22T08:29:06;22.70;99.90
1355;DHT22;671;48.972;9.276;2023-07-22T08:31:33;22.80;99.90
1355;DHT22;671;48.972;9.276;2023-07-22T08:33:59;22.90;99.90
1355;DHT22;671;48.972;9.276;2023-07-22T08:36:26;23.00;99.90
1355;DHT22;671;48.972;9.276;2023-07-22T08:38:52;23.10;99.90
1355;DHT22;671;48.972;9.276;2023-07-22T08:41:19;23.20;99.90
1355;DHT22;671;48.972;9.276;2023-07-22T08:43:48;23.20;99.90
1355;DHT22;671;48.972;9.276;2023-07-22T08:46:19;23.30;99.90
1355;DHT22;671;48.972;9.276;2023-07-22T08:48:47;23.40;99.90
1355;DHT22;671;48.972;9.276;2023-07-22T08:51:17;23.50;99.90
1355;DHT22;671;48.972;9.276;2023-07-22T08:53:45;23.60;99.90
1355;DHT22;671;48.972;9.276;2023-07-22T08:56:13;23.50;99.90
1355;DHT22;671;48.972;9.276;2023-07-22T08:58:41;23.50;99.90
1355;DHT22;671;48.972;9.276;2023-07-22T09:01:11;23.50;99.90
1355;DHT22;671;48.972;9.276;2023-07-22T09:03:39;23.60;99.90
1355;DHT22;671;48.972;9.276;2023-07-22T09:06:07;23.70;99.90
1355;DHT22;671;48.972;9.276;2023-07-22T09:08:33;23.70;99.90
1355;DHT22;671;48.972;9.276;2023-07-22T09:11:01;23.70;99.90
1355;DHT22;671;48.972;9.276;2023-07-22T09:13:28;23.70;99.90
1355;DHT22;671;48.972;9.276;2023-07-22T09:15:57;23.80;99.90
1355;DHT22;671;48.972;9.276;2023-07-22T09:18:25;23.90;99.90
1355;DHT22;671;48.972;9.276;2023-07-22T09:20:52;24.00;99.90
1355;DHT22;671;48.972;9.276;2023-07-22T09:23:35;24.00;99.90
1355;DHT22;671;48.972;9.276;2023-07-22T09:26:12;24.20;99.90
1355;DHT22;671;48.972;9.276;2023-07-22T09:28:56;24.30;99.90
1355;DHT22;671;48.972;9.276;2023-07-22T09:31:27;24.50;99.90
1355;DHT22;671;48.972;9.276;2023-07-22T09:34:09;24.70;99.90
1355;DHT22;671;48.972;9.276;2023-07-22T09:36:56;24.90;99.90
1355;DHT22;671;48.972;9.276;2023-07-22T09:39:26;25.10;99.90
1355;DHT22;671;48.972;9.276;2023-07-22T09:41:52;25.10;99.90
1355;DHT22;671;48.972;9.276;2023-07-22T09:44:19;25.10;99.70
1355;DHT22;671;48.972;9.276;2023-07-22T09:46:49;25.30;99.40
1355;DHT22;671;48.972;9.276;2023-07-22T09:49:17;25.30;98.90
1355;DHT22;671;48.972;9.276;2023-07-22T09:51:44;25.30;98.50
1355;DHT22;671;48.972;9.276;2023-07-22T09:54:10;25.30;98.50
1355;DHT22;671;48.972;9.276;2023-07-22T09:56:48;25.40;98.40
1355;DHT22;671;48.972;9.276;2023-07-22T09:59:17;25.50;98.20
1355;DHT22;671;48.972;9.276;2023-07-22T10:01:46;25.50;97.00
1355;DHT22;671;48.972;9.276;2023-07-22T10:04:16;25.40;96.70
1355;DHT22;671;48.972;9.276;2023-07-22T10:06:43;25.60;97.30
1355;DHT22;671;48.972;9.276;2023-07-22T10:09:11;25.70;96.40
1355;DHT22;671;48.972;9.276;2023-07-22T10:11:39;26.00;96.90
1355;DHT22;671;48.972;9.276;2023-07-22T10:14:06;26.40;96.70
1355;DHT22;671;48.972;9.276;2023-07-22T10:16:33;26.80;95.50
1355;DHT22;671;48.972;9.276;2023-07-22T10:19:01;26.90;94.50
1355;DHT22;671;48.972;9.276;2023-07-22T10:21:28;27.20;94.90
1355;DHT22;671;48.972;9.276;2023-07-22T10:23:56;27.30;94.30
1355;DHT22;671;48.972;9.276;2023-07-22T10:26:22;27.50;93.30
1355;DHT22;671;48.972;9.276;2023-07-22T10:28:49;27.60;92.20
1355;DHT22;671;48.972;9.276;2023-07-22T10:31:16;27.80;92.80
1355;DHT22;671;48.972;9.276;2023-07-22T10:33:48;27.80;91.30
1355;DHT22;671;48.972;9.276;2023-07-22T10:36:16;27.90;91.50
1355;DHT22;671;48.972;9.276;2023-07-22T10:38:43;27.80;91.40
1355;DHT22;671;48.972;9.276;2023-07-22T10:41:17;27.50;91.10
1355;DHT22;671;48.972;9.276;2023-07-22T10:43:57;27.50;91.50
1355;DHT22;671;48.972;9.276;2023-07-22T10:46:35;27.30;91.00
1355;DHT22;671;48.972;9.276;2023-07-22T10:49:15;27.00;91.10
1355;DHT22;671;48.972;9.276;2023-07-22T10:51:48;26.90;91.00
1355;DHT22;671;48.972;9.276;2023-07-22T10:54:15;26.70;90.70
1355;DHT22;671;48.972;9.276;2023-07-22T10:56:56;26.70;91.20
1355;DHT22;671;48.972;9.276;2023-07-22T10:59:27;26.80;91.60
1355;DHT22;671;48.972;9.276;2023-07-22T11:01:56;26.90;92.30
1355;DHT22;671;48.972;9.276;2023-07-22T11:07:45;27.00;91.00
1355;DHT22;671;48.972;9.276;2023-07-22T11:10:18;26.90;89.40
1355;DHT22;671;48.972;9.276;2023-07-22T11:12:45;27.00;90.10
1355;DHT22;671;48.972;9.276;2023-07-22T11:15:15;27.10;88.70
1355;DHT22;671;48.972;9.276;2023-07-22T11:17:43;27.50;88.90
1355;DHT22;671;48.972;9.276;2023-07-22T11:20:09;27.50;86.10
1355;DHT22;671;48.972;9.276;2023-07-22T11:22:39;27.30;85.10
1355;DHT22;671;48.972;9.276;2023-07-22T11:25:07;27.40;84.80
1355;DHT22;671;48.972;9.276;2023-07-22T11:27:33;27.40;84.10
1355;DHT22;671;48.972;9.276;2023-07-22T11:30:02;27.40;83.40
1355;DHT22;671;48.972;9.276;2023-07-22T11:32:29;27.30;83.50
1355;DHT22;671;48.972;9.276;2023-07-22T11:34:56;27.30;83.80
1355;DHT22;671;48.972;9.276;2023-07-22T11:37:22;27.30;83.40
1355;DHT22;671;48.972;9.276;2023-07-22T11:39:49;27.40;83.80
1355;DHT22;671;48.972;9.276;2023-07-22T11:42:15;27.40;82.30
1355;DHT22;671;48.972;9.276;2023-07-22T11:44:42;27.20;83.40
1355;DHT22;671;48.972;9.276;2023-07-22T11:47:08;27.20;82.10
1355;DHT22;671;48.972;9.276;2023-07-22T11:54:38;27.10;83.60
1355;DHT22;671;48.972;9.276;2023-07-22T11:57:18;27.10;84.90
1355;DHT22;671;48.972;9.276;2023-07-22T11:59:51;27.10;84.40
1355;DHT22;671;48.972;9.276;2023-07-22T12:02:26;27.10;86.10
1355;DHT22;671;48.972;9.276;2023-07-22T12:04:57;27.20;85.80
1355;DHT22;671;48.972;9.276;2023-07-22T12:07:25;27.30;86.20
1355;DHT22;671;48.972;9.276;2023-07-22T12:09:53;27.50;86.10
1355;DHT22;671;48.972;9.276;2023-07-22T12:12:20;27.70;84.90
1355;DHT22;671;48.972;9.276;2023-07-22T12:14:46;27.90;85.00
1355;DHT22;671;48.972;9.276;2023-07-22T12:17:13;28.00;82.30
1355;DHT22;671;48.972;9.276;2023-07-22T12:19:51;28.10;81.50
1355;DHT22;671;48.972;9.276;2023-07-22T12:22:18;28.00;81.60
1355;DHT22;671;48.972;9.276;2023-07-22T12:24:47;27.90;81.30
1355;DHT22;671;48.972;9.276;2023-07-22T12:27:14;28.20;82.30
1355;DHT22;671;48.972;9.276;2023-07-22T12:29:40;28.50;80.30
1355;DHT22;671;48.972;9.276;2023-07-22T12:32:07;28.70;78.40
1355;DHT22;671;48.972;9.276;2023-07-22T12:34:34;28.70;79.80
1355;DHT22;671;48.972;9.276;2023-07-22T12:37:00;28.70;79.80
1355;DHT22;671;48.972;9.276;2023-07-22T12:39:27;28.60;79.70
1355;DHT22;671;48.972;9.276;2023-07-22T12:41:55;28.60;79.70
1355;DHT22;671;48.972;9.276;2023-07-22T12:44:22;28.80;79.70
1355;DHT22;671;48.972;9.276;2023-07-22T12:46:48;29.00;78.90
1355;DHT22;671;48.972;9.276;2023-07-22T12:49:15;29.20;78.80
1355;DHT22;671;48.972;9.276;2023-07-22T12:51:41;29.20;78.50
1355;DHT22;671;48.972;9.276;2023-07-22T12:54:08;29.20;76.60
1355;DHT22;671;48.972;9.276;2023-07-22T12:56:34;29.10;75.40
1355;DHT22;671;48.972;9.276;2023-07-22T12:59:01;29.40;77.40
1355;DHT22;671;48.972;9.276;2023-07-22T13:01:27;29.50;76.60
1355;DHT22;671;48.972;9.276;2023-07-22T13:03:54;29.30;74.40
1355;DHT22;671;48.972;9.276;2023-07-22T13:06:20;29.40;76.50
1355;DHT22;671;48.972;9.276;2023-07-22T13:08:46;29.60;76.20
1355;DHT22;671;48.972;9.276;2023-07-22T13:11:13;29.80;77.20
1355;DHT22;671;48.972;9.276;2023-07-22T13:13:39;29.90;76.20
1355;DHT22;671;48.972;9.276;2023-07-22T13:16:06;29.80;74.20
1355;DHT22;671;48.972;9.276;2023-07-22T13:18:32;29.60;75.30
1355;DHT22;671;48.972;9.276;2023-07-22T13:20:59;29.30;74.20
1355;DHT22;671;48.972;9.276;2023-07-22T13:23:25;29.40;76.00
1355;DHT22;671;48.972;9.276;2023-07-22T13:25:52;29.50;77.20
1355;DHT22;671;48.972;9.276;2023-07-22T13:28:18;29.60;75.50
1355;DHT22;671;48.972;9.276;2023-07-22T13:30:45;29.60;76.60
1355;DHT22;671;48.972;9.276;2023-07-22T13:33:11;29.50;75.20
1355;DHT22;671;48.972;9.276;2023-07-22T13:35:38;29.50;73.80
1355;DHT22;671;48.972;9.276;2023-07-22T13:38:04;29.70;74.40
1355;DHT22;671;48.972;9.276;2023-07-22T13:40:31;29.80;75.30
1355;DHT22;671;48.972;9.276;2023-07-22T13:42:58;29.80;74.10
1355;DHT22;671;48.972;9.276;2023-07-22T13:45:26;29.80;73.20
1355;DHT22;671;48.972;9.276;2023-07-22T13:47:52;29.50;73.10
1355;DHT22;671;48.972;9.276;2023-07-22T13:50:19;29.50;74.00
1355;DHT22;671;48.972;9.276;2023-07-22T13:52:45;29.40;75.00
1355;DHT22;671;48.972;9.276;2023-07-22T13:55:12;29.50;74.00
1355;DHT22;671;48.972;9.276;2023-07-22T13:57:38;29.60;75.10
1355;DHT22;671;48.972;9.276;2023-07-22T14:00:05;29.50;74.80
1355;DHT22;671;48.972;9.276;2023-07-22T14:02:34;29.50;73.20
1355;DHT22;671;48.972;9.276;2023-07-22T14:05:01;29.40;71.70
1355;DHT22;671;48.972;9.276;2023-07-22T14:07:27;29.40;72.20
1355;DHT22;671;48.972;9.276;2023-07-22T14:09:54;29.30;72.40
1355;DHT22;671;48.972;9.276;2023-07-22T14:12:21;29.40;72.10
1355;DHT22;671;48.972;9.276;2023-07-22T14:14:47;29.40;72.60
1355;DHT22;671;48.972;9.276;2023-07-22T14:17:14;29.30;72.20
1355;DHT22;671;48.972;9.276;2023-07-22T14:19:40;29.30;71.10
1355;DHT22;671;48.972;9.276;2023-07-22T14:22:08;29.00;71.50
1355;DHT22;671;48.972;9.276;2023-07-22T14:24:34;28.80;70.90
1355;DHT22;671;48.972;9.276;2023-07-22T14:27:01;28.70;72.60
1355;DHT22;671;48.972;9.276;2023-07-22T14:29:27;28.90;71.60
1355;DHT22;671;48.972;9.276;2023-07-22T14:31:56;29.00;71.60
1355;DHT22;671;48.972;9.276;2023-07-22T14:34:23;29.00;69.70
1355;DHT22;671;48.972;9.276;2023-07-22T14:36:50;29.00;71.20
1355;DHT22;671;48.972;9.276;2023-07-22T14:39:16;29.00;70.80
1355;DHT22;671;48.972;9.276;2023-07-22T14:41:43;29.00;72.70
1355;DHT22;671;48.972;9.276;2023-07-22T14:44:10;29.00;70.80
1355;DHT22;671;48.972;9.276;2023-07-22T14:46:36;29.00;70.80
1355;DHT22;671;48.972;9.276;2023-07-22T14:49:04;28.80;70.70
1355;DHT22;671;48.972;9.276;2023-07-22T14:51:30;28.60;71.20
1355;DHT22;671;48.972;9.276;2023-07-22T14:53:57;28.70;72.20
1355;DHT22;671;48.972;9.276;2023-07-22T14:56:24;28.70;72.50
1355;DHT22;671;48.972;9.276;2023-07-22T14:58:50;28.80;70.70
1355;DHT22;671;48.972;9.276;2023-07-22T15:01:17;28.70;70.60
1355;DHT22;671;48.972;9.276;2023-07-22T15:03:43;28.70;71.70
1355;DHT22;671;48.972;9.276;2023-07-22T15:06:10;28.70;71.60
1355;DHT22;671;48.972;9.276;2023-07-22T15:08:36;28.80;70.70
1355;DHT22;671;48.972;9.276;2023-07-22T15:11:03;28.70;70.00
1355;DHT22;671;48.972;9.276;2023-07-22T15:13:29;28.60;70.70
1355;DHT22;671;48.972;9.276;2023-07-22T15:15:56;28.50;72.30
1355;DHT22;671;48.972;9.276;2023-07-22T15:18:23;28.40;70.40
1355;DHT22;671;48.972;9.276;2023-07-22T15:20:52;28.10;70.10
1355;DHT22;671;48.972;9.276;2023-07-22T15:23:19;27.80;69.90
1355;DHT22;671;48.972;9.276;2023-07-22T15:25:46;27.70;70.00
1355;DHT22;671;48.972;9.276;2023-07-22T15:28:12;27.60;70.80
1355;DHT22;671;48.972;9.276;2023-07-22T15:30:39;27.60;72.60
1355;DHT22;671;48.972;9.276;2023-07-22T15:33:05;27.80;72.70
1355;DHT22;671;48.972;9.276;2023-07-22T15:35:32;27.80;71.80
1355;DHT22;671;48.972;9.276;2023-07-22T15:37:59;27.90;71.90
1355;DHT22;671;48.972;9.276;2023-07-22T15:40:25;27.80;70.70
1355;DHT22;671;48.972;9.276;2023-07-22T15:42:52;27.70;72.80
1355;DHT22;671;48.972;9.276;2023-07-22T15:45:18;27.70;70.90
1355;DHT22;671;48.972;9.276;2023-07-22T15:47:45;27.70;70.50
1355;DHT22;671;48.972;9.276;2023-07-22T15:50:11;27.70;71.00
1355;DHT22;671;48.972;9.276;2023-07-22T15:52:38;27.80;70.00
1355;DHT22;671;48.972;9.276;2023-07-22T15:55:05;27.80;70.30
1355;DHT22;671;48.972;9.276;2023-07-22T15:57:31;27.80;71.50
1355;DHT22;671;48.972;9.276;2023-07-22T15:59:58;27.80;71.90
1355;DHT22;671;48.972;9.276;2023-07-22T16:02:24;27.70;71.30
1355;DHT22;671;48.972;9.276;2023-07-22T16:04:51;27.60;71.60
1355;DHT22;671;48.972;9.276;2023-07-22T16:07:17;27.50;71.90
1355;DHT22;671;48.972;9.276;2023-07-22T16:09:44;27.50;72.20
1355;DHT22;671;48.972;9.276;2023-07-22T16:12:10;27.60;71.10
1355;DHT22;671;48.972;9.276;2023-07-22T16:14:37;27.70;71.50
1355;DHT22;671;48.972;9.276;2023-07-22T16:17:03;27.80;71.10
1355;DHT22;671;48.972;9.276;2023-07-22T16:19:30;27.90;71.60
1355;DHT22;671;48.972;9.276;2023-07-22T16:21:56;27.90;70.30
1355;DHT22;671;48.972;9.276;2023-07-22T16:24:23;27.90;70.60